sensor_id;sensor_type;location;lat;lon;timestamp;pressure;altitude;pressure_sealevel;temperature;humidity
30073;BME280;16897;52.422;13.678;2023-04-19T00:01:04;102328.50;;;9.93;57.74
30073;BME280;16897;52.422;13.678;2023-04-19T00:05:06;102360.31;;;10.07;57.84
30073;BME280;16897;52.422;13.678;2023-04-19T00:09:08;102337.06;;;9.98;57.64
30073;BME280;16897;52.422;13.678;2023-04-19T00:13:10;102344.84;;;10.00;57.86
30073;BME280;16897;52.422;13.678;2023-04-19T00:17:11;102345.78;;;9.97;57.67
30073;BME280;16897;52.422;13.678;2023-04-19T00:21:13;102343.91;;;10.02;57.72
30073;BME280;16897;52.422;13.678;2023-04-19T00:25:15;102277.22;;;9.59;57.75
30073;BME280;16897;52.422;13.678;2023-04-19T00:29:17;102336.31;;;9.93;57.65
30073;BME280;16897;52.422;13.678;2023-04-19T00:33:18;102302.16;;;9.69;57.77
30073;BME280;16897;52.422;13.678;2023-04-19T00:37:20;102332.19;;;9.86;57.71
30073;BME280;16897;52.422;13.678;2023-04-19T00:41:22;102342.53;;;9.89;57.62
30073;BME280;16897;52.422;13.678;2023-04-19T00:45:25;102328.66;;;9.87;57.78
30073;BME280;16897;52.422;13.678;2023-04-19T00:49:26;102322.81;;;9.77;57.73
30073;BME280;16897;52.422;13.678;2023-04-19T00:53:29;102333.13;;;9.83;57.65
30073;BME280;16897;52.422;13.678;2023-04-19T00:57:30;102296.25;;;9.61;57.71
30073;BME280;16897;52.422;13.678;2023-04-19T01:01:32;102317.69;;;9.74;57.62
30073;BME280;16897;52.422;13.678;2023-04-19T01:05:34;102336.59;;;9.82;57.62
30073;BME280;16897;52.422;13.678;2023-04-19T01:09:39;102322.81;;;9.77;57.73
30073;BME280;16897;52.422;13.678;2023-04-19T01:13:41;102342.66;;;9.83;57.75
30073;BME280;16897;52.422;13.678;2023-04-19T01:17:44;102344.63;;;9.74;57.47
30073;BME280;16897;52.422;13.678;2023-04-19T01:21:46;102331.81;;;9.67;57.46
30073;BME280;16897;52.422;13.678;2023-04-19T01:25:47;102320.81;;;9.54;57.63
30073;BME280;16897;52.422;13.678;2023-04-19T01:29:50;102330.25;;;9.58;57.62
30073;BME280;16897;52.422;13.678;2023-04-19T01:33:52;102338.09;;;9.58;57.40
30073;BME280;16897;52.422;13.678;2023-04-19T01:37:53;102323.69;;;9.43;57.43
30073;BME280;16897;52.422;13.678;2023-04-19T01:41:56;102292.88;;;9.23;57.47
30073;BME280;16897;52.422;13.678;2023-04-19T01:45:58;102326.25;;;9.45;57.33
30073;BME280;16897;52.422;13.678;2023-04-19T01:49:59;102330.69;;;9.41;57.32
30073;BME280;16897;52.422;13.678;2023-04-19T01:54:01;102275.03;;;9.06;57.47
30073;BME280;16897;52.422;13.678;2023-04-19T01:58:03;102300.78;;;9.20;57.39
30073;BME280;16897;52.422;13.678;2023-04-19T02:02:07;102294.03;;;9.12;57.31
30073;BME280;16897;52.422;13.678;2023-04-19T02:06:12;102292.34;;;9.09;57.31
30073;BME280;16897;52.422;13.678;2023-04-19T02:10:14;102265.84;;;8.92;57.35
30073;BME280;16897;52.422;13.678;2023-04-19T02:14:15;102294.97;;;9.09;57.18
30073;BME280;16897;52.422;13.678;2023-04-19T02:18:17;102302.69;;;9.12;57.29
30073;BME280;16897;52.422;13.678;2023-04-19T02:22:19;102304.50;;;9.10;57.25
30073;BME280;16897;52.422;13.678;2023-04-19T02:26:21;102236.16;;;8.61;57.20
30073;BME280;16897;52.422;13.678;2023-04-19T02:30:24;102293.69;;;8.90;57.28
30073;BME280;16897;52.422;13.678;2023-04-19T02:34:26;102289.41;;;8.87;57.05
30073;BME280;16897;52.422;13.678;2023-04-19T02:38:28;102282.69;;;8.77;57.07
30073;BME280;16897;52.422;13.678;2023-04-19T02:42:30;102299.88;;;8.84;57.05
30073;BME280;16897;52.422;13.678;2023-04-19T02:46:31;102289.72;;;8.72;57.13
30073;BME280;16897;52.422;13.678;2023-04-19T02:50:35;102291.66;;;8.63;57.10
30073;BME280;16897;52.422;13.678;2023-04-19T02:54:37;102243.59;;;8.36;57.13
30073;BME280;16897;52.422;13.678;2023-04-19T02:58:38;102256.59;;;8.39;56.99
30073;BME280;16897;52.422;13.678;2023-04-19T03:02:41;102277.41;;;8.39;57.08
30073;BME280;16897;52.422;13.678;2023-04-19T03:06:44;102266.38;;;8.27;57.07
30073;BME280;16897;52.422;13.678;2023-04-19T03:10:47;102282.66;;;8.36;57.21
30073;BME280;16897;52.422;13.678;2023-04-19T03:14:48;102282.78;;;8.32;57.26
30073;BME280;16897;52.422;13.678;2023-04-19T03:18:50;102239.88;;;8.08;57.11
30073;BME280;16897;52.422;13.678;2023-04-19T03:22:56;102257.97;;;8.14;57.09
30073;BME280;16897;52.422;13.678;2023-04-19T03:26:59;102262.19;;;8.18;57.13
30073;BME280;16897;52.422;13.678;2023-04-19T03:31:04;102244.31;;;8.03;56.92
30073;BME280;16897;52.422;13.678;2023-04-19T03:35:05;102218.59;;;7.89;57.19
30073;BME280;16897;52.422;13.678;2023-04-19T03:39:08;102245.09;;;8.06;57.03
30073;BME280;16897;52.422;13.678;2023-04-19T03:43:12;102247.69;;;8.08;57.23
30073;BME280;16897;52.422;13.678;2023-04-19T03:47:14;102232.31;;;7.95;57.26
30073;BME280;16897;52.422;13.678;2023-04-19T03:51:20;102240.16;;;7.94;57.05
30073;BME280;16897;52.422;13.678;2023-04-19T03:55:22;102229.84;;;7.89;56.98
30073;BME280;16897;52.422;13.678;2023-04-19T03:59:24;102215.25;;;7.82;57.15
30073;BME280;16897;52.422;13.678;2023-04-19T04:03:26;102234.16;;;7.90;56.90
30073;BME280;16897;52.422;13.678;2023-04-19T04:07:27;102230.81;;;7.84;57.13
30073;BME280;16897;52.422;13.678;2023-04-19T04:11:30;102229.13;;;7.81;57.18
30073;BME280;16897;52.422;13.678;2023-04-19T04:15:32;102225.69;;;7.79;56.96
30073;BME280;16897;52.422;13.678;2023-04-19T04:19:34;102193.28;;;7.52;57.23
30073;BME280;16897;52.422;13.678;2023-04-19T04:23:37;102219.81;;;7.69;57.05
30073;BME280;16897;52.422;13.678;2023-04-19T04:27:42;102189.78;;;7.53;57.06
30073;BME280;16897;52.422;13.678;2023-04-19T04:31:51;102197.56;;;7.56;57.17
30073;BME280;16897;52.422;13.678;2023-04-19T04:35:56;102211.34;;;7.60;57.06
30073;BME280;16897;52.422;13.678;2023-04-19T04:40:02;102200.19;;;7.54;57.15
30073;BME280;16897;52.422;13.678;2023-04-19T04:44:06;102204.47;;;7.56;57.25
30073;BME280;16897;52.422;13.678;2023-04-19T04:48:10;102203.69;;;7.53;57.31
30073;BME280;16897;52.422;13.678;2023-04-19T04:52:12;102153.03;;;7.28;57.17
30073;BME280;16897;52.422;13.678;2023-04-19T04:56:24;102176.97;;;7.44;57.39
30073;BME280;16897;52.422;13.678;2023-04-19T05:00:27;102189.72;;;7.58;57.18
30073;BME280;16897;52.422;13.678;2023-04-19T05:04:35;102184.59;;;7.54;57.25
30073;BME280;16897;52.422;13.678;2023-04-19T05:08:38;102150.41;;;7.29;57.31
30073;BME280;16897;52.422;13.678;2023-04-19T05:12:54;102187.16;;;7.56;57.16
30073;BME280;16897;52.422;13.678;2023-04-19T05:16:55;102182.00;;;7.53;57.20
30073;BME280;16897;52.422;13.678;2023-04-19T05:20:58;102134.03;;;7.24;57.43
30073;BME280;16897;52.422;13.678;2023-04-19T05:25:04;102179.38;;;7.54;57.37
30073;BME280;16897;52.422;13.678;2023-04-19T05:29:06;102145.06;;;7.37;57.49
30073;BME280;16897;52.422;13.678;2023-04-19T05:33:20;102150.09;;;7.45;57.47
30073;BME280;16897;52.422;13.678;2023-04-19T05:37:24;102153.59;;;7.45;57.47
30073;BME280;16897;52.422;13.678;2023-04-19T05:41:25;102159.50;;;7.52;57.54
30073;BME280;16897;52.422;13.678;2023-04-19T05:45:27;102171.44;;;7.62;57.60
30073;BME280;16897;52.422;13.678;2023-04-19T05:49:29;102178.22;;;7.69;57.73
30073;BME280;16897;52.422;13.678;2023-04-19T05:53:47;102161.69;;;7.72;57.60
30073;BME280;16897;52.422;13.678;2023-04-19T05:57:49;102157.25;;;7.79;57.69
30073;BME280;16897;52.422;13.678;2023-04-19T06:01:51;102128.66;;;7.77;57.85
30073;BME280;16897;52.422;13.678;2023-04-19T06:05:53;102142.13;;;7.96;57.85
30073;BME280;16897;52.422;13.678;2023-04-19T06:09:55;102133.25;;;8.06;57.85
30073;BME280;16897;52.422;13.678;2023-04-19T06:13:56;102117.50;;;8.12;57.68
30073;BME280;16897;52.422;13.678;2023-04-19T06:17:58;102154.13;;;8.44;57.93
30073;BME280;16897;52.422;13.678;2023-04-19T06:22:00;102144.47;;;8.49;57.88
30073;BME280;16897;52.422;13.678;2023-04-19T06:26:01;102138.19;;;8.56;57.70
30073;BME280;16897;52.422;13.678;2023-04-19T06:30:04;102143.88;;;8.72;57.66
30073;BME280;16897;52.422;13.678;2023-04-19T06:34:06;102134.28;;;8.75;57.85
30073;BME280;16897;52.422;13.678;2023-04-19T06:38:07;102148.63;;;8.92;57.90
30073;BME280;16897;52.422;13.678;2023-04-19T06:42:08;102125.19;;;8.90;57.79
30073;BME280;16897;52.422;13.678;2023-04-19T06:46:10;102129.09;;;9.08;57.90
30073;BME280;16897;52.422;13.678;2023-04-19T06:50:14;102121.84;;;9.19;57.72
30073;BME280;16897;52.422;13.678;2023-04-19T06:54:15;102108.91;;;9.15;57.60
30073;BME280;16897;52.422;13.678;2023-04-19T06:58:17;102081.34;;;9.07;57.68
30073;BME280;16897;52.422;13.678;2023-04-19T07:02:18;102120.56;;;9.34;57.63
30073;BME280;16897;52.422;13.678;2023-04-19T07:06:21;102111.56;;;9.46;57.70
30073;BME280;16897;52.422;13.678;2023-04-19T07:10:22;102115.53;;;9.59;57.67
30073;BME280;16897;52.422;13.678;2023-04-19T07:14:23;102110.13;;;9.65;57.74
30073;BME280;16897;52.422;13.678;2023-04-19T07:18:25;102103.06;;;9.69;57.64
30073;BME280;16897;52.422;13.678;2023-04-19T07:22:26;102104.47;;;9.81;57.53
30073;BME280;16897;52.422;13.678;2023-04-19T07:26:28;102100.50;;;9.97;57.75
30073;BME280;16897;52.422;13.678;2023-04-19T07:30:29;102092.34;;;10.08;57.73
30073;BME280;16897;52.422;13.678;2023-04-19T07:34:31;102069.59;;;10.11;57.55
30073;BME280;16897;52.422;13.678;2023-04-19T07:38:32;102056.34;;;10.17;57.70
30073;BME280;16897;52.422;13.678;2023-04-19T07:42:33;102088.09;;;10.58;57.71
30073;BME280;16897;52.422;13.678;2023-04-19T07:46:35;102065.28;;;10.63;57.69
30073;BME280;16897;52.422;13.678;2023-04-19T07:50:36;102060.47;;;10.78;57.60
30073;BME280;16897;52.422;13.678;2023-04-19T07:54:37;102060.72;;;10.95;57.45
30073;BME280;16897;52.422;13.678;2023-04-19T07:58:39;102059.44;;;11.07;57.43
30073;BME280;16897;52.422;13.678;2023-04-19T08:02:42;102014.97;;;11.07;57.47
30073;BME280;16897;52.422;13.678;2023-04-19T08:06:44;102036.59;;;11.36;57.24
30073;BME280;16897;52.422;13.678;2023-04-19T08:10:46;102063.19;;;11.70;57.19
30073;BME280;16897;52.422;13.678;2023-04-19T08:14:47;102065.13;;;11.89;57.20
30073;BME280;16897;52.422;13.678;2023-04-19T08:18:49;102004.56;;;11.74;57.07
30073;BME280;16897;52.422;13.678;2023-04-19T08:22:52;102043.22;;;12.13;56.40
30073;BME280;16897;52.422;13.678;2023-04-19T08:26:54;102059.34;;;12.25;56.36
30073;BME280;16897;52.422;13.678;2023-04-19T08:30:57;102021.16;;;12.19;56.38
30073;BME280;16897;52.422;13.678;2023-04-19T08:34:59;102036.16;;;12.36;56.33
30073;BME280;16897;52.422;13.678;2023-04-19T08:39:01;102032.66;;;12.37;56.28
30073;BME280;16897;52.422;13.678;2023-04-19T08:43:05;102044.50;;;12.66;56.37
30073;BME280;16897;52.422;13.678;2023-04-19T08:47:07;102016.41;;;12.70;56.12
30073;BME280;16897;52.422;13.678;2023-04-19T08:51:11;102005.59;;;12.77;55.77
30073;BME280;16897;52.422;13.678;2023-04-19T08:55:12;102009.63;;;12.84;55.87
30073;BME280;16897;52.422;13.678;2023-04-19T08:59:15;101976.25;;;12.69;55.81
30073;BME280;16897;52.422;13.678;2023-04-19T09:03:17;101984.25;;;12.85;55.70
30073;BME280;16897;52.422;13.678;2023-04-19T09:07:25;102014.19;;;13.00;55.70
30073;BME280;16897;52.422;13.678;2023-04-19T09:11:36;102004.56;;;13.00;55.63
30073;BME280;16897;52.422;13.678;2023-04-19T09:15:40;102017.13;;;13.13;55.42
30073;BME280;16897;52.422;13.678;2023-04-19T09:19:46;101990.41;;;13.04;54.81
30073;BME280;16897;52.422;13.678;2023-04-19T09:23:48;102005.56;;;13.17;54.97
30073;BME280;16897;52.422;13.678;2023-04-19T09:27:49;102001.91;;;13.21;54.96
30073;BME280;16897;52.422;13.678;2023-04-19T09:31:58;101964.88;;;13.08;54.93
30073;BME280;16897;52.422;13.678;2023-04-19T09:35:59;101957.72;;;13.12;54.58
30073;BME280;16897;52.422;13.678;2023-04-19T09:40:20;101969.97;;;13.32;54.71
30073;BME280;16897;52.422;13.678;2023-04-19T09:44:22;101923.41;;;13.16;54.43
30073;BME280;16897;52.422;13.678;2023-04-19T09:48:24;101976.50;;;13.59;54.60
30073;BME280;16897;52.422;13.678;2023-04-19T09:52:25;101962.19;;;13.66;54.25
30073;BME280;16897;52.422;13.678;2023-04-19T09:56:26;101957.69;;;13.68;54.35
30073;BME280;16897;52.422;13.678;2023-04-19T10:00:28;101935.00;;;13.67;54.23
30073;BME280;16897;52.422;13.678;2023-04-19T10:04:29;101954.63;;;13.78;53.96
30073;BME280;16897;52.422;13.678;2023-04-19T10:08:32;101921.66;;;13.72;54.15
30073;BME280;16897;52.422;13.678;2023-04-19T10:12:33;101931.69;;;13.81;53.90
30073;BME280;16897;52.422;13.678;2023-04-19T10:16:37;101932.38;;;13.85;54.08
30073;BME280;16897;52.422;13.678;2023-04-19T10:20:54;101937.72;;;14.01;54.09
30073;BME280;16897;52.422;13.678;2023-04-19T10:25:14;101925.84;;;14.11;53.99
30073;BME280;16897;52.422;13.678;2023-04-19T10:33:56;101923.13;;;14.30;53.97
30073;BME280;16897;52.422;13.678;2023-04-19T10:42:09;101914.56;;;14.26;53.31
30073;BME280;16897;52.422;13.678;2023-04-19T10:50:22;101912.94;;;14.24;53.40
30073;BME280;16897;52.422;13.678;2023-04-19T10:54:32;101924.34;;;14.23;53.41
30073;BME280;16897;52.422;13.678;2023-04-19T11:07:44;101896.09;;;14.10;53.18
30073;BME280;16897;52.422;13.678;2023-04-19T11:11:46;101885.25;;;14.16;53.16
30073;BME280;16897;52.422;13.678;2023-04-19T11:15:48;101880.28;;;14.28;52.97
30073;BME280;16897;52.422;13.678;2023-04-19T11:20:03;101879.56;;;14.42;53.16
30073;BME280;16897;52.422;13.678;2023-04-19T11:24:09;101874.06;;;14.46;53.13
30073;BME280;16897;52.422;13.678;2023-04-19T11:28:11;101885.84;;;14.56;52.86
30073;BME280;16897;52.422;13.678;2023-04-19T11:32:12;101862.38;;;14.52;53.04
30073;BME280;16897;52.422;13.678;2023-04-19T11:36:14;101864.03;;;14.54;53.02
30073;BME280;16897;52.422;13.678;2023-04-19T11:40:20;101848.72;;;14.45;52.75
30073;BME280;16897;52.422;13.678;2023-04-19T11:44:22;101881.34;;;14.58;52.89
30073;BME280;16897;52.422;13.678;2023-04-19T11:48:23;101850.53;;;14.45;52.57
30073;BME280;16897;52.422;13.678;2023-04-19T11:52:25;101847.19;;;14.41;52.63
30073;BME280;16897;52.422;13.678;2023-04-19T11:56:26;101870.28;;;14.52;52.74
30073;BME280;16897;52.422;13.678;2023-04-19T12:00:28;101859.16;;;14.47;52.50
30073;BME280;16897;52.422;13.678;2023-04-19T12:04:30;101875.50;;;14.53;52.72
30073;BME280;16897;52.422;13.678;2023-04-19T12:08:36;101830.91;;;14.34;52.19
30073;BME280;16897;52.422;13.678;2023-04-19T12:12:37;101841.88;;;14.43;52.39
30073;BME280;16897;52.422;13.678;2023-04-19T12:16:39;101860.88;;;14.48;52.36
30073;BME280;16897;52.422;13.678;2023-04-19T12:20:45;101818.50;;;14.21;52.25
30073;BME280;16897;52.422;13.678;2023-04-19T12:24:52;101865.81;;;14.54;52.29
30073;BME280;16897;52.422;13.678;2023-04-19T12:28:54;101858.72;;;14.56;52.05
30073;BME280;16897;52.422;13.678;2023-04-19T12:32:57;101861.41;;;14.54;51.71
30073;BME280;16897;52.422;13.678;2023-04-19T12:36:58;101823.03;;;14.34;51.79
30073;BME280;16897;52.422;13.678;2023-04-19T12:41:00;101838.22;;;14.45;51.75
30073;BME280;16897;52.422;13.678;2023-04-19T12:45:01;101830.34;;;14.45;51.91
30073;BME280;16897;52.422;13.678;2023-04-19T12:49:03;101788.50;;;14.25;51.84
30073;BME280;16897;52.422;13.678;2023-04-19T12:53:04;101778.31;;;14.19;51.82
30073;BME280;16897;52.422;13.678;2023-04-19T12:57:06;101814.13;;;14.37;51.82
30073;BME280;16897;52.422;13.678;2023-04-19T13:01:09;101801.84;;;14.37;51.84
30073;BME280;16897;52.422;13.678;2023-04-19T13:05:10;101813.78;;;14.43;51.91
30073;BME280;16897;52.422;13.678;2023-04-19T13:09:13;101762.63;;;14.17;51.71
30073;BME280;16897;52.422;13.678;2023-04-19T13:13:15;101788.34;;;14.28;51.87
30073;BME280;16897;52.422;13.678;2023-04-19T13:17:18;101783.19;;;14.42;51.71
30073;BME280;16897;52.422;13.678;2023-04-19T13:21:20;101771.16;;;14.38;51.73
30073;BME280;16897;52.422;13.678;2023-04-19T13:25:23;101767.91;;;14.33;51.69
30073;BME280;16897;52.422;13.678;2023-04-19T13:29:24;101750.34;;;14.17;51.50
30073;BME280;16897;52.422;13.678;2023-04-19T13:33:26;101750.91;;;14.07;51.42
30073;BME280;16897;52.422;13.678;2023-04-19T13:37:28;101762.63;;;14.17;51.59
30073;BME280;16897;52.422;13.678;2023-04-19T13:41:29;101760.19;;;14.14;51.39
30073;BME280;16897;52.422;13.678;2023-04-19T13:45:31;101760.19;;;14.14;51.47
30073;BME280;16897;52.422;13.678;2023-04-19T13:49:33;101757.44;;;14.00;51.33
30073;BME280;16897;52.422;13.678;2023-04-19T13:53:34;101779.06;;;14.05;51.41
30073;BME280;16897;52.422;13.678;2023-04-19T13:57:36;101781.53;;;13.90;51.55
30073;BME280;16897;52.422;13.678;2023-04-19T14:01:37;101804.50;;;13.87;51.32
30073;BME280;16897;52.422;13.678;2023-04-19T14:05:39;101776.88;;;13.62;51.40
30073;BME280;16897;52.422;13.678;2023-04-19T14:09:41;101771.56;;;13.46;51.38
30073;BME280;16897;52.422;13.678;2023-04-19T14:13:42;101757.88;;;13.22;51.40
30073;BME280;16897;52.422;13.678;2023-04-19T14:17:45;101759.88;;;13.17;51.56
30073;BME280;16897;52.422;13.678;2023-04-19T14:21:47;101730.63;;;13.07;51.68
30073;BME280;16897;52.422;13.678;2023-04-19T14:25:48;101744.13;;;13.17;51.78
30073;BME280;16897;52.422;13.678;2023-04-19T14:29:50;101726.88;;;13.13;51.74
30073;BME280;16897;52.422;13.678;2023-04-19T14:33:52;101729.78;;;13.24;51.55
30073;BME280;16897;52.422;13.678;2023-04-19T14:37:53;101686.34;;;13.01;51.77
30073;BME280;16897;52.422;13.678;2023-04-19T14:41:54;101697.63;;;13.21;51.72
30073;BME280;16897;52.422;13.678;2023-04-19T14:45:58;101716.22;;;13.34;51.75
30073;BME280;16897;52.422;13.678;2023-04-19T14:49:59;101711.31;;;13.27;51.88
30073;BME280;16897;52.422;13.678;2023-04-19T14:54:00;101683.59;;;13.04;51.63
30073;BME280;16897;52.422;13.678;2023-04-19T14:58:08;101733.00;;;13.12;51.70
30073;BME280;16897;52.422;13.678;2023-04-19T15:02:10;101707.69;;;12.76;51.75
30073;BME280;16897;52.422;13.678;2023-04-19T15:06:13;101699.56;;;12.63;51.88
30073;BME280;16897;52.422;13.678;2023-04-19T15:10:14;101705.31;;;12.53;51.91
30073;BME280;16897;52.422;13.678;2023-04-19T15:14:15;101696.13;;;12.44;52.14
30073;BME280;16897;52.422;13.678;2023-04-19T15:18:17;101679.16;;;12.15;52.02
30073;BME280;16897;52.422;13.678;2023-04-19T15:22:18;101719.22;;;12.17;52.10
30073;BME280;16897;52.422;13.678;2023-04-19T15:26:19;101743.06;;;12.11;52.10
30073;BME280;16897;52.422;13.678;2023-04-19T15:30:21;101750.94;;;11.90;52.17
30073;BME280;16897;52.422;13.678;2023-04-19T15:34:23;101754.88;;;11.60;52.16
30073;BME280;16897;52.422;13.678;2023-04-19T15:38:27;101751.63;;;11.34;52.34
30073;BME280;16897;52.422;13.678;2023-04-19T15:42:29;101754.69;;;11.23;52.31
30073;BME280;16897;52.422;13.678;2023-04-19T15:46:30;101744.31;;;11.00;52.30
30073;BME280;16897;52.422;13.678;2023-04-19T15:50:35;101741.41;;;10.85;52.49
30073;BME280;16897;52.422;13.678;2023-04-19T15:54:36;101697.47;;;10.51;52.42
30073;BME280;16897;52.422;13.678;2023-04-19T15:58:38;101734.22;;;10.69;52.71
30073;BME280;16897;52.422;13.678;2023-04-19T16:02:40;101739.31;;;10.72;52.65
30073;BME280;16897;52.422;13.678;2023-04-19T16:06:41;101736.97;;;10.66;52.56
30073;BME280;16897;52.422;13.678;2023-04-19T16:10:43;101734.34;;;10.66;52.50
30073;BME280;16897;52.422;13.678;2023-04-19T16:14:45;101708.72;;;10.53;52.49
30073;BME280;16897;52.422;13.678;2023-04-19T16:18:47;101732.53;;;10.68;52.55
30073;BME280;16897;52.422;13.678;2023-04-19T16:22:48;101719.47;;;10.68;52.62
30073;BME280;16897;52.422;13.678;2023-04-19T16:26:49;101725.25;;;10.76;52.65
30073;BME280;16897;52.422;13.678;2023-04-19T16:30:54;101718.31;;;10.75;52.69
30073;BME280;16897;52.422;13.678;2023-04-19T16:34:56;101691.09;;;10.58;52.69
30073;BME280;16897;52.422;13.678;2023-04-19T16:38:58;101720.97;;;10.73;52.74
30073;BME280;16897;52.422;13.678;2023-04-19T16:43:00;101684.13;;;10.59;52.65
30073;BME280;16897;52.422;13.678;2023-04-19T16:47:01;101710.41;;;10.76;52.74
30073;BME280;16897;52.422;13.678;2023-04-19T16:51:03;101656.00;;;10.44;52.69
30073;BME280;16897;52.422;13.678;2023-04-19T16:55:05;101695.00;;;10.70;52.48
30073;BME280;16897;52.422;13.678;2023-04-19T16:59:07;101657.59;;;10.48;52.67
30073;BME280;16897;52.422;13.678;2023-04-19T17:03:08;101666.13;;;10.51;52.81
30073;BME280;16897;52.422;13.678;2023-04-19T17:07:10;101700.09;;;10.73;52.80
30073;BME280;16897;52.422;13.678;2023-04-19T17:11:12;101694.84;;;10.73;52.80
30073;BME280;16897;52.422;13.678;2023-04-19T17:15:13;101678.69;;;10.63;52.86
30073;BME280;16897;52.422;13.678;2023-04-19T17:19:15;101653.56;;;10.39;52.79
30073;BME280;16897;52.422;13.678;2023-04-19T17:23:16;101691.88;;;10.60;52.82
30073;BME280;16897;52.422;13.678;2023-04-19T17:27:17;101696.25;;;10.60;52.73
30073;BME280;16897;52.422;13.678;2023-04-19T17:31:19;101684.34;;;10.53;52.99
30073;BME280;16897;52.422;13.678;2023-04-19T17:35:20;101693.16;;;10.50;52.91
30073;BME280;16897;52.422;13.678;2023-04-19T17:39:22;101640.59;;;10.14;52.92
30073;BME280;16897;52.422;13.678;2023-04-19T17:43:27;101668.84;;;10.26;53.08
30073;BME280;16897;52.422;13.678;2023-04-19T17:47:29;101693.41;;;10.44;53.04
30073;BME280;16897;52.422;13.678;2023-04-19T17:51:31;101649.25;;;10.14;53.14
30073;BME280;16897;52.422;13.678;2023-04-19T17:55:33;101697.78;;;10.44;53.24
30073;BME280;16897;52.422;13.678;2023-04-19T17:59:34;101679.91;;;10.33;53.03
30073;BME280;16897;52.422;13.678;2023-04-19T18:03:36;101694.38;;;10.41;53.17
30073;BME280;16897;52.422;13.678;2023-04-19T18:07:38;101692.72;;;10.39;53.22
30073;BME280;16897;52.422;13.678;2023-04-19T18:11:39;101702.28;;;10.40;53.22
30073;BME280;16897;52.422;13.678;2023-04-19T18:15:40;101692.16;;;10.31;53.09
30073;BME280;16897;52.422;13.678;2023-04-19T18:19:42;101692.34;;;10.26;53.17
30073;BME280;16897;52.422;13.678;2023-04-19T18:23:43;101694.91;;;10.28;53.27
30073;BME280;16897;52.422;13.678;2023-04-19T18:27:44;101697.50;;;10.28;53.38
30073;BME280;16897;52.422;13.678;2023-04-19T18:31:46;101688.94;;;10.24;53.34
30073;BME280;16897;52.422;13.678;2023-04-19T18:35:47;101706.06;;;10.31;53.21
30073;BME280;16897;52.422;13.678;2023-04-19T18:39:49;101705.38;;;10.26;53.23
30073;BME280;16897;52.422;13.678;2023-04-19T18:43:51;101708.09;;;10.23;53.44
30073;BME280;16897;52.422;13.678;2023-04-19T18:47:54;101709.00;;;10.22;53.39
30073;BME280;16897;52.422;13.678;2023-04-19T18:51:56;101699.22;;;10.05;53.40
30073;BME280;16897;52.422;13.678;2023-04-19T18:55:57;101717.97;;;10.15;53.44
30073;BME280;16897;52.422;13.678;2023-04-19T18:59:59;101702.53;;;10.09;53.40
30073;BME280;16897;52.422;13.678;2023-04-19T19:04:00;101724.16;;;10.12;53.53
30073;BME280;16897;52.422;13.678;2023-04-19T19:08:02;101704.72;;;9.97;53.54
30073;BME280;16897;52.422;13.678;2023-04-19T19:12:04;101685.34;;;9.80;53.47
30073;BME280;16897;52.422;13.678;2023-04-19T19:16:06;101725.53;;;9.99;53.68
30073;BME280;16897;52.422;13.678;2023-04-19T19:20:08;101717.91;;;9.93;53.77
30073;BME280;16897;52.422;13.678;2023-04-19T19:24:10;101723.22;;;9.91;53.59
30073;BME280;16897;52.422;13.678;2023-04-19T19:28:11;101723.38;;;9.87;53.83
30073;BME280;16897;52.422;13.678;2023-04-19T19:32:13;101719.06;;;9.86;53.63
30073;BME280;16897;52.422;13.678;2023-04-19T19:36:15;101722.41;;;9.89;53.72
30073;BME280;16897;52.422;13.678;2023-04-19T19:40:20;101696.94;;;9.72;53.90
30073;BME280;16897;52.422;13.678;2023-04-19T19:44:22;101721.75;;;9.83;53.86
30073;BME280;16897;52.422;13.678;2023-04-19T19:48:24;101718.25;;;9.84;53.90
30073;BME280;16897;52.422;13.678;2023-04-19T19:52:26;101727.84;;;9.83;53.94
30073;BME280;16897;52.422;13.678;2023-04-19T19:56:28;101723.47;;;9.84;54.00
30073;BME280;16897;52.422;13.678;2023-04-19T20:00:29;101711.81;;;9.69;54.05
30073;BME280;16897;52.422;13.678;2023-04-19T20:04:31;101725.50;;;9.75;54.17
30073;BME280;16897;52.422;13.678;2023-04-19T20:08:34;101750.28;;;9.87;54.05
30073;BME280;16897;52.422;13.678;2023-04-19T20:12:39;101759.88;;;9.87;54.33
30073;BME280;16897;52.422;13.678;2023-04-19T20:16:40;101735.94;;;9.75;54.28
30073;BME280;16897;52.422;13.678;2023-04-19T20:20:42;101730.63;;;9.79;54.11
30073;BME280;16897;52.422;13.678;2023-04-19T20:24:44;101738.91;;;9.90;54.23
30073;BME280;16897;52.422;13.678;2023-04-19T20:28:45;101751.78;;;9.94;54.42
30073;BME280;16897;52.422;13.678;2023-04-19T20:32:47;101740.81;;;9.85;54.24
30073;BME280;16897;52.422;13.678;2023-04-19T20:36:50;101738.28;;;9.83;54.23
30073;BME280;16897;52.422;13.678;2023-04-19T20:40:51;101743.19;;;9.91;54.30
30073;BME280;16897;52.422;13.678;2023-04-19T20:44:54;101743.38;;;9.86;54.45
30073;BME280;16897;52.422;13.678;2023-04-19T20:48:55;101739.00;;;9.87;54.51
30073;BME280;16897;52.422;13.678;2023-04-19T20:52:57;101724.66;;;9.75;54.43
30073;BME280;16897;52.422;13.678;2023-04-19T20:56:59;101743.44;;;9.85;54.49
30073;BME280;16897;52.422;13.678;2023-04-19T21:01:02;101744.97;;;9.90;54.64
30073;BME280;16897;52.422;13.678;2023-04-19T21:05:04;101744.13;;;9.90;54.43
30073;BME280;16897;52.422;13.678;2023-04-19T21:09:05;101732.09;;;9.86;54.66
30073;BME280;16897;52.422;13.678;2023-04-19T21:13:07;101744.13;;;9.90;54.46
30073;BME280;16897;52.422;13.678;2023-04-19T21:17:08;101739.00;;;9.87;54.48
30073;BME280;16897;52.422;13.678;2023-04-19T21:21:10;101738.44;;;9.79;54.68